首页
METAR-TAF:

METAR-TAF

机场 :

Rosecrans Memorial Airport

Saint Joseph, 密蘇里州, 美国

纬度: 39-46-05N, 经度: 094-54-33W, 海拔: 251米

当前天气观测

该预报发布于22分钟前的06:53 UTC
风速10节,风向南转西南
温度 25°C
湿度 65%
气压 1009 hPa
能見度: 16.1公里
天空无云

METAR: KSTJ 130653Z AUTO 20010KT 10SM CLR 25/18 A2981 RMK AO2 SLP084 T02500178

时间: 02:15 (07:15 UTC)

预报

该预报发布于1小时和47分钟前的05:28 UTC
预报有效从13日的 06点(UTC)到 14日的 06点(UTC)
风速10节,风向
能見度: 10公里
天空无云
从 13日的 1400点(UTC)
风速14节,风向南转西南,有时为25节阵风
能見度: 10公里
散云层高于10000英尺
从 13日的 2300点(UTC)
风速12节,风向西转西北,有时为20节阵风
能見度: 10公里
多云层高于3500英尺, 积雨云.
附近有雷暴
几率 30%
从 13日的 23点(UTC)到 14日的 02点(UTC)
风速18节,风向西转西北,有时为28节阵风
能見度: 6.4公里
阴天层高于1000英尺, 积雨云.
雷暴, 小雨
从 14日的 0200点(UTC)
风速12节,风向北转东北
能見度: 10公里
多云层高于3500英尺

TAF: KSTJ 130528Z 1306/1406 19010KT P6SM SKC FM131400 21014G25KT P6SM SCT100 FM132300 29012G20KT P6SM VCTS BKN035CB PROB30 1323/1402 30018G28KT 4SM -TSRA OVC010CB FM140200 03012KT P6SM BKN035

超过4000个机场的气象观测和天气预报(METAR&TAF报告)。

可查询的气象台以黄色和红色小点在地图上表示。

将鼠标移到小点上方,可查看气象台名称。

然后点击查看天气观测和预报。

如需切换地图:点击带黑十字的绿色按钮放大地图;点击带横线的绿色按钮缩小地图;或者点击绿色箭头查看邻近地区的地图。


METAR-TAF: